Date,TemperatureHighF,TemperatureAvgF,TemperatureLowF,DewpointHighF,DewpointAvgF,DewpointLowF,HumidityHigh,HumidityAvg,HumidityLow,PressureMaxIn,PressureMinIn,WindSpeedMaxMPH,WindSpeedAvgMPH,GustSpeedMaxMPH,PrecipitationSumIn
2013-8-1,93.1,80.1,74.0,78.0,74.8,73.0,99,86,54,30.09,29.96,6,1,11,0.31
2013-8-2,91.8,80.7,73.1,78.0,74.2,69.0,99,83,49,30.05,29.96,10,1,20,0.60
2013-8-3,94.0,80.1,73.9,80.0,75.6,72.0,99,88,53,30.12,30.02,10,1,17,0.39
2013-8-4,92.5,81.4,74.8,81.0,76.9,74.0,99,87,64,30.11,30.01,5,1,12,0.02
2013-8-5,94.7,82.6,76.0,82.0,77.4,74.0,98,85,58,30.04,29.93,12,1,15,0.30
2013-8-6,93.8,82.5,74.5,81.0,76.8,74.0,99,84,60,29.99,29.91,4,0,11,0.01
2013-8-7,93.4,84.2,76.9,80.0,77.5,75.0,98,81,58,29.99,29.93,3,0,8,0.00
2013-8-8,94.3,85.5,75.5,80.0,76.5,74.0,99,76,54,30.06,29.96,4,1,8,0.00
2013-8-9,93.2,81.3,75.2,79.0,75.6,73.0,98,84,56,30.09,29.99,7,1,13,0.15
2013-8-10,95.2,83.4,72.8,79.0,75.3,70.0,99,79,46,30.14,30.05,7,1,9,0.01
2013-8-11,95.5,84.0,74.0,80.0,75.6,73.0,99,78,52,30.17,30.07,4,1,8,0.00
2013-8-12,93.8,82.7,73.5,79.0,74.6,71.0,98,78,52,30.15,30.02,5,1,12,0.00
2013-8-13,94.3,82.5,72.6,78.0,74.4,72.0,98,79,49,30.07,29.93,5,1,8,0.00
2013-8-14,97.6,82.4,75.8,80.0,76.0,74.0,97,82,51,30.04,29.91,7,1,13,0.00
2013-8-15,93.3,82.4,73.7,78.0,75.3,73.0,98,81,54,30.06,29.94,5,1,9,0.00
2013-8-16,94.6,82.4,75.1,80.0,76.1,73.0,96,83,50,30.07,29.98,8,1,8,0.28
2013-8-17,94.7,81.0,73.7,82.0,77.1,72.0,99,89,60,30.10,30.00,21,1,24,1.39
2013-8-18,92.2,80.5,75.7,80.0,76.8,75.0,100,90,63,30.13,30.03,8,1,10,0.43
2013-8-19,94.4,80.4,73.6,81.0,76.1,73.0,99,88,59,30.12,29.99,6,1,11,0.01
2013-8-20,94.6,80.9,73.6,80.0,76.0,73.0,99,86,55,30.11,30.01,9,1,11,0.32
2013-8-21,92.9,80.9,75.5,81.0,77.0,75.0,98,89,62,30.13,30.04,11,1,12,0.40
2013-8-22,81.7,77.7,75.2,77.0,75.9,75.0,98,94,84,30.10,30.01,4,1,10,0.03
2013-8-23,93.9,81.1,75.9,81.0,76.8,74.0,99,88,55,30.04,29.96,10,1,10,0.09
2013-8-24,91.8,78.9,74.5,80.0,75.6,73.0,99,91,64,30.13,30.02,7,1,22,0.04
2013-8-25,90.3,79.2,74.4,78.0,75.6,73.0,99,89,65,30.18,30.09,6,1,13,0.05
2013-8-26,85.8,78.5,74.5,79.0,75.6,73.0,98,91,72,30.16,30.02,9,2,12,0.19
2013-8-27,91.3,80.2,72.6,76.0,72.9,69.0,99,81,53,30.09,30.00,5,1,9,0.01
2013-8-28,90.7,78.6,70.1,76.0,71.4,67.0,98,81,46,30.08,29.99,4,0,9,0.00
2013-8-29,91.3,81.2,71.6,75.0,72.5,69.0,98,77,51,30.05,29.94,6,1,7,0.00
2013-8-30,94.7,80.4,73.1,78.0,74.2,71.0,99,84,52,30.00,29.91,7,1,25,0.93
2013-8-31,94.6,81.5,72.3,79.0,74.5,71.0,99,81,52,29.99,29.90,5,1,10,0.04